Time;durP1;ratioP1;P1;durP2;ratioP2;P2;SDS_P1;SDS_P2;PMS_P1;PMS_P2;Temp;Humidity;BMP_temperature;BMP_pressure;BME280_temperature;BME280_humidity;BME280_pressure;Samples;Min_cycle;Max_cycle;Signal;HPM_P1;HPM_P2
2024/04/12 05:33:22;;;;;;;0.20;0.20;;;;;;;16.19;70.63;75583.19;6431462;21;19998;-95
2024/04/12 05:35:51;;;;;;;0.20;0.20;;;;;;;16.49;68.09;75615.75;6347974;22;20404;-95
2024/04/12 05:38:21;;;;;;;0.20;0.20;;;;;;;16.63;67.76;75631.97;6430828;22;20026;-96
2024/04/12 05:40:52;;;;;;;0.20;0.20;;;;;;;16.84;67.82;75653.78;6349710;22;20006;-94
2024/04/12 05:43:18;;;;;;;0.20;0.20;;;;;;;16.95;65.95;75663.59;6387130;22;19995;-94
2024/04/12 05:45:49;;;;;;;0.20;0.20;;;;;;;16.97;66.19;75674.34;6387646;22;20002;-93
2024/04/12 05:48:16;;;;;;;0.10;0.10;;;;;;;17.27;68.68;75707.56;6431919;22;19995;-94
2024/04/12 05:50:48;;;;;;;0.20;0.20;;;;;;;17.39;65.67;75720.78;6430889;22;20054;-94
2024/04/12 05:53:14;;;;;;;0.20;0.20;;;;;;;17.74;65.31;75762.81;6388215;22;19998;-95
2024/04/12 05:55:52;;;;;;;0.20;0.20;;;;;;;17.85;64.38;75769.81;6388496;22;20034;-94
2024/04/12 05:58:18;;;;;;;0.20;0.20;;;;;;;18.14;63.37;75811.81;6388246;22;19998;-95
2024/04/12 06:00:47;;;;;;;0.20;0.20;;;;;;;18.31;60.86;75821.03;6431346;22;20013;-94
2024/04/12 06:03:14;;;;;;;0.20;0.20;;;;;;;18.38;61.02;75835.06;6388085;22;19995;-95
2024/04/12 06:05:55;;;;;;;0.20;0.20;;;;;;;18.71;59.70;75876.91;6387946;22;20069;-95
2024/04/12 06:08:22;;;;;;;0.20;0.20;;;;;;;18.53;58.60;75849.66;6388304;22;20295;-94
2024/04/12 06:10:50;;;;;;;0.20;0.20;;;;;;;18.90;58.11;75892.91;6388589;22;20003;-95
2024/04/12 06:13:24;;;;;;;0.10;0.10;;;;;;;18.84;57.54;75889.72;6386407;22;20009;-94
2024/04/12 06:15:49;;;;;;;0.20;0.20;;;;;;;18.99;57.37;75909.94;6429286;22;20006;-94
2024/04/12 06:18:16;;;;;;;0.20;0.20;;;;;;;19.29;55.60;75939.78;6387300;22;20454;-94
2024/04/12 06:20:43;;;;;;;0.20;0.20;;;;;;;19.43;56.38;75961.00;6387103;22;19998;-95
2024/04/12 06:23:14;;;;;;;0.20;0.20;;;;;;;19.75;54.26;75996.69;6387672;22;20007;-96
2024/04/12 06:25:45;;;;;;;0.20;0.20;;;;;;;19.87;53.60;76013.31;6431437;22;20073;-95
2024/04/12 06:28:14;;;;;;;0.20;0.20;;;;;;;19.96;52.69;76017.91;6431819;22;20023;-95
2024/04/12 06:30:40;;;;;;;0.20;0.20;;;;;;;20.17;52.15;76042.56;6430920;22;19999;-95
2024/04/12 06:33:06;;;;;;;0.20;0.20;;;;;;;20.39;50.37;76069.00;6430636;22;19999;-94
2024/04/12 06:39:27;;;;;;;0.20;0.20;;;;;;;21.28;48.74;76170.84;6426269;22;20046;-94
2024/04/12 06:41:57;;;;;;;0.10;0.10;;;;;;;21.27;48.24;76170.25;6428863;22;20013;-95
2024/04/12 06:44:24;;;;;;;0.20;0.20;;;;;;;21.42;46.87;76196.78;6429162;22;19998;-95
2024/04/12 06:46:57;;;;;;;0.10;0.10;;;;;;;21.93;45.97;76245.66;6388464;22;20492;-94
2024/04/12 06:49:27;;;;;;;;;;;;;;;22.11;46.50;76272.41;6432544;22;20006;-95
2024/04/12 06:52:11;;;;;;;0.20;0.20;;;;;;;21.81;45.83;76236.88;6387850;22;19930;-95
2024/04/12 06:54:46;;;;;;;0.13;0.13;;;;;;;22.07;45.83;76266.97;6387060;22;20010;-94
2024/04/12 06:57:18;;;;;;;0.10;0.10;;;;;;;22.95;43.91;76371.72;6388666;22;20434;-94
2024/04/12 06:59:47;;;;;;;0.15;0.15;;;;;;;23.34;43.36;76414.09;6431700;22;19999;-94
2024/04/12 07:02:15;;;;;;;0.20;0.20;;;;;;;23.12;42.62;76391.63;6431412;22;20073;-93
2024/04/12 07:04:41;;;;;;;0.20;0.20;;;;;;;22.85;43.02;76354.03;6430644;22;19995;-94
2024/04/12 07:07:07;;;;;;;0.10;0.10;;;;;;;22.68;42.38;76342.63;6431400;22;20009;-93
2024/04/12 07:09:33;;;;;;;0.20;0.20;;;;;;;22.86;42.62;76360.88;6430782;22;20005;-93
2024/04/12 07:12:05;;;;;;;0.20;0.20;;;;;;;23.07;42.24;76385.59;6431104;22;20009;-93
2024/04/12 07:14:36;;;;;;;0.20;0.20;;;;;;;23.26;41.40;76405.03;6387692;22;20066;-93
2024/04/12 07:17:02;;;;;;;0.20;0.20;;;;;;;23.18;41.95;76395.41;6387630;22;20303;-94
2024/04/12 07:19:28;;;;;;;0.20;0.20;;;;;;;23.42;40.94;76427.13;6430615;22;20009;-94
2024/04/12 07:21:56;;;;;;;0.20;0.20;;;;;;;23.48;40.83;76431.53;6387450;22;19995;-95
2024/04/12 07:24:22;;;;;;;0.10;0.10;;;;;;;23.47;41.34;76429.72;6431023;22;19994;-93
2024/04/12 07:26:49;;;;;;;0.10;0.10;;;;;;;23.81;39.83;76467.28;6431263;22;20009;-94
2024/04/12 07:29:14;;;;;;;0.20;0.20;;;;;;;23.74;40.37;76465.09;6429981;22;19995;-95
2024/04/12 07:31:39;;;;;;;0.20;0.20;;;;;;;23.51;40.27;76437.97;6429699;22;20306;-95
2024/04/12 07:34:05;;;;;;;0.20;0.20;;;;;;;23.54;40.97;76435.31;6386721;22;20034;-95
2024/04/12 07:36:31;;;;;;;0.10;0.10;;;;;;;23.95;40.13;76484.16;6386768;22;20075;-94
2024/04/12 07:39:03;;;;;;;0.10;0.10;;;;;;;24.32;39.15;76530.34;6387004;22;20025;-93
2024/04/12 07:41:32;;;;;;;0.10;0.10;;;;;;;25.01;37.57;76614.56;6430485;22;20069;-94
2024/04/12 07:43:58;;;;;;;0.20;0.20;;;;;;;24.94;37.34;76606.72;6390720;22;20013;-94
2024/04/12 07:46:27;;;;;;;0.20;0.20;;;;;;;25.06;36.88;76615.56;6388815;22;20003;-92
2024/04/12 07:48:59;;;;;;;0.10;0.10;;;;;;;25.82;37.16;76704.81;6390584;22;20014;-93
2024/04/12 07:51:28;;;;;;;0.10;0.10;;;;;;;26.01;36.89;76729.97;6429578;22;20066;-93
2024/04/12 07:53:54;;;;;;;0.10;0.10;;;;;;;26.47;35.54;76787.09;6429519;22;19998;-92
2024/04/12 07:56:21;;;;;;;0.10;0.10;;;;;;;25.51;36.06;76671.44;6385885;22;20431;-94
2024/04/12 07:59:01;;;;;;;0.17;0.17;;;;;;;25.25;35.91;76637.88;6386300;22;20331;-94
2024/04/12 08:01:27;;;;;;;0.15;0.15;;;;;;;25.39;36.18;76654.13;6430022;22;20030;-94
2024/04/12 08:04:05;;;;;;;0.10;0.10;;;;;;;25.80;36.39;76703.00;6386683;22;20001;-93
2024/04/12 08:06:36;;;;;;;0.10;0.10;;;;;;;26.61;34.48;76801.75;6386560;22;20002;-95
2024/04/12 08:09:06;;;;;;;0.10;0.10;;;;;;;26.84;35.30;76823.22;6386124;22;19999;-94
2024/04/12 08:11:35;;;;;;;0.20;0.20;;;;;;;26.75;33.64;76814.63;6384995;22;20073;-94
2024/04/12 08:14:19;;;;;;;0.10;0.10;;;;;;;27.64;33.19;76923.69;6385702;22;19995;-94
2024/04/12 08:16:52;;;;;;;0.10;0.10;;;;;;;28.31;31.73;76997.13;6386701;22;20006;-93
2024/04/12 08:20:00;;;;;;;0.20;0.20;;;;;;;27.90;32.06;76951.66;6362416;22;20070;-95
2024/04/12 08:22:27;;;;;;;0.10;0.10;;;;;;;28.73;30.50;77049.50;6379821;22;20504;-94
2024/04/12 08:24:55;;;;;;;0.10;0.10;;;;;;;28.64;30.25;77039.22;6336854;22;20316;-94
2024/04/12 08:27:24;;;;;;;0.10;0.10;;;;;;;28.84;29.33;77062.78;6379800;22;19995;-93
2024/04/12 08:29:55;;;;;;;0.10;0.10;;;;;;;28.40;28.97;77008.00;6336659;22;20073;-94
2024/04/12 08:32:33;;;;;;;0.10;0.10;;;;;;;28.43;29.23;77011.03;6336682;22;20421;-95
2024/04/12 08:35:05;;;;;;;0.10;0.10;;;;;;;28.46;29.36;77020.34;6379170;22;20095;-95
2024/04/12 08:37:36;;;;;;;0.10;0.10;;;;;;;28.48;29.89;77019.31;6379778;22;20397;-95
2024/04/12 08:40:08;;;;;;;0.10;0.10;;;;;;;28.32;29.45;77000.56;6335553;22;19995;-96
2024/04/12 08:42:34;;;;;;;0.10;0.10;;;;;;;28.14;30.70;76982.28;6335185;22;20006;-95
2024/04/12 08:45:18;;;;;;;0.10;0.10;;;;;;;27.54;30.52;76905.31;6335742;22;19992;-94
2024/04/12 08:48:04;;;;;;;0.10;0.10;;;;;;;28.99;28.72;77080.34;6335998;22;20014;-94
2024/04/12 08:50:35;;;;;;;0.10;0.10;;;;;;;29.68;27.76;77162.53;6378186;22;20074;-94
2024/04/12 08:53:11;;;;;;;0.10;0.10;;;;;;;29.91;27.98;77189.69;6378622;22;19995;-94
2024/04/12 08:55:42;;;;;;;0.10;0.10;;;;;;;29.15;28.95;77096.22;6379894;22;20018;-94
2024/04/12 08:58:08;;;;;;;0.10;0.10;;;;;;;29.66;28.48;77160.09;6380041;22;20000;-94
2024/04/12 09:00:35;;;;;;;0.10;0.10;;;;;;;29.21;27.46;77101.22;6336718;22;20006;-94
2024/04/12 09:03:03;;;;;;;0.10;0.10;;;;;;;29.36;28.08;77123.84;6380658;22;20077;-95
2024/04/12 09:05:32;;;;;;;0.10;0.10;;;;;;;29.75;27.87;77167.53;6380355;22;20006;-94
2024/04/12 09:08:05;;;;;;;0.10;0.10;;;;;;;29.26;28.23;77118.03;6339306;22;20007;-93
2024/04/12 09:10:35;;;;;;;0.10;0.10;;;;;;;28.70;28.71;77045.88;6340710;22;20073;-93
2024/04/12 09:13:03;;;;;;;0.10;0.10;;;;;;;28.56;29.43;77029.56;6382021;22;20023;-94
2024/04/12 09:15:32;;;;;;;0.10;0.10;;;;;;;29.98;27.88;77198.16;6340967;22;20019;-94
2024/04/12 09:18:01;;;;;;;0.10;0.10;;;;;;;29.92;27.63;77190.31;6384201;22;20002;-94
2024/04/12 09:20:35;;;;;;;0.10;0.10;;;;;;;30.73;26.66;77287.06;6339506;22;20043;-95
2024/04/12 09:23:14;;;;;;;0.10;0.10;;;;;;;30.51;27.19;77255.34;6342049;22;19995;-95
2024/04/12 09:25:56;;;;;;;0.10;0.10;;;;;;;30.97;25.86;77312.03;6340687;22;20003;-95
2024/04/12 09:28:26;;;;;;;0.10;0.10;;;;;;;29.16;27.75;77095.16;6339602;22;20027;-95
2024/04/12 09:33:39;;;;;;;0.20;0.20;;;;;;;28.72;28.67;77045.44;6382318;22;20006;-95
2024/04/12 09:36:13;;;;;;;0.10;0.10;;;;;;;29.50;27.40;77141.34;6338392;22;20017;-95
2024/04/12 09:38:40;;;;;;;0.10;0.10;;;;;;;28.67;28.47;77037.16;6339205;22;19999;-95
2024/04/12 09:41:29;;;;;;;0.10;0.10;;;;;;;28.95;28.49;77075.50;6382364;22;19995;-94
2024/04/12 09:43:59;;;;;;;0.10;0.10;;;;;;;28.37;29.43;77003.78;6340153;22;20003;-95
2024/04/12 09:46:47;;;;;;;0.10;0.10;;;;;;;28.79;28.72;77053.31;6383758;22;20006;-94
2024/04/12 10:39:49;;;;;;;0.10;0.10;;;;;;;29.10;31.54;77093.63;6376847;22;20082;-95
2024/04/12 10:42:19;;;;;;;0.10;0.10;;;;;;;28.87;33.02;77066.41;6336161;22;20079;-94
2024/04/12 10:44:50;;;;;;;0.10;0.10;;;;;;;28.77;33.05;77059.44;6381204;22;19999;-94
2024/04/12 10:47:20;;;;;;;0.10;0.10;;;;;;;27.89;34.66;76949.84;6338139;22;20088;-95
2024/04/12 10:49:51;;;;;;;0.10;0.10;;;;;;;28.75;34.10;77051.91;6339084;22;20023;-94
2024/04/12 10:52:20;;;;;;;0.10;0.10;;;;;;;27.97;34.50;76958.91;6382825;22;20003;-94
2024/04/12 10:54:57;;;;;;;0.10;0.10;;;;;;;28.84;33.53;77056.50;6380636;22;19999;-94
2024/04/12 10:57:23;;;;;;;0.10;0.10;;;;;;;28.32;33.15;76994.88;6380320;22;19999;-96
2024/04/12 10:59:51;;;;;;;0.10;0.10;;;;;;;28.71;33.98;77050.53;6338830;22;20300;-95
2024/04/12 11:02:17;;;;;;;0.10;0.10;;;;;;;28.47;34.46;77015.84;6338920;22;20352;-93
2024/04/12 11:07:48;;;;;;;0.10;0.10;;;;;;;28.64;31.80;77039.22;6232139;23;20016;-91
2024/04/12 11:10:24;;;;;;;0.10;0.10;;;;;;;28.37;33.99;77006.63;6353389;22;19991;-91
2024/04/12 11:13:10;;;;;;;0.10;0.10;;;;;;;28.10;34.72;76975.19;6337468;22;20011;-92
2024/04/12 11:31:55;;;;;;;0.10;0.10;;;;;;;28.15;33.34;76981.25;6380336;22;20011;-91
2024/04/12 11:34:25;;;;;;;0.10;0.10;;;;;;;28.30;32.81;76995.31;6338445;22;19996;-92
2024/04/12 11:36:54;;;;;;;0.10;0.10;;;;;;;28.87;31.72;77060.72;6337048;22;20011;-92
2024/04/12 11:39:27;;;;;;;0.10;0.10;;;;;;;28.51;32.08;77023.53;6337475;22;20003;-91
2024/04/12 11:41:55;;;;;;;0.10;0.10;;;;;;;27.56;34.27;76914.03;6337161;22;19999;-92
2024/04/12 11:44:23;;;;;;;0.10;0.10;;;;;;;28.07;33.98;76965.28;6336818;22;19995;-91
2024/04/12 11:46:49;;;;;;;0.10;0.10;;;;;;;28.49;32.09;77018.25;6380119;22;20020;-91
2024/04/12 11:49:25;;;;;;;0.15;0.15;;;;;;;28.20;33.32;76986.69;6379823;22;20043;-91
2024/04/12 11:51:55;;;;;;;0.10;0.10;;;;;;;27.69;33.92;76926.88;6335533;22;20436;-90
2024/04/12 11:54:29;;;;;;;0.10;0.10;;;;;;;27.61;34.72;76919.47;6376147;22;19998;-90
2024/04/12 11:56:57;;;;;;;0.10;0.10;;;;;;;27.41;34.33;76896.53;6334070;22;19995;-90
2024/04/12 11:59:27;;;;;;;0.10;0.10;;;;;;;27.66;35.28;76923.25;6376568;22;19995;-90
2024/04/12 12:01:59;;;;;;;0.10;0.10;;;;;;;27.71;36.02;76925.28;6333516;22;19999;-90
2024/04/12 12:04:31;;;;;;;0.10;0.10;;;;;;;27.47;33.27;76897.47;6335215;22;20007;-92
2024/04/12 12:07:02;;;;;;;0.10;0.10;;;;;;;28.41;32.71;77012.06;6378665;22;20003;-93
2024/04/12 12:09:32;;;;;;;0.10;0.10;;;;;;;28.47;34.43;77021.53;6333148;22;19999;-93
2024/04/12 12:12:00;;;;;;;0.10;0.10;;;;;;;28.48;34.27;77013.63;6333387;22;20409;-92
2024/04/12 12:14:26;;;;;;;0.10;0.10;;;;;;;28.38;36.14;77002.75;6374087;22;20006;-92
2024/04/12 12:16:51;;;;;;;0.10;0.10;;;;;;;27.82;37.40;76944.84;6329517;22;20003;-92
2024/04/12 12:19:20;;;;;;;0.10;0.10;;;;;;;27.71;39.30;76928.72;6331354;22;20014;-94
2024/04/12 12:21:51;;;;;;;0.10;0.10;;;;;;;28.03;39.91;76966.75;6376275;22;20078;-94
2024/04/12 12:24:26;;;;;;;0.10;0.10;;;;;;;27.63;40.95;76925.31;6373253;22;20066;-93
2024/04/12 12:26:51;;;;;;;0.10;0.10;;;;;;;27.06;41.94;76854.88;6333925;22;20418;-93
2024/04/12 12:29:18;;;;;;;0.10;0.10;;;;;;;27.28;40.02;76878.00;6375149;22;19999;-93
2024/04/12 12:31:47;;;;;;;0.10;0.10;;;;;;;27.38;38.77;76887.22;6376156;22;20003;-93
2024/04/12 12:34:14;;;;;;;0.10;0.10;;;;;;;27.53;37.35;76901.28;6333311;22;19999;-94
2024/04/12 12:36:46;;;;;;;0.10;0.10;;;;;;;27.52;36.22;76905.75;6333671;22;20256;-94
2024/04/12 12:39:11;;;;;;;0.10;0.10;;;;;;;28.04;37.43;76967.34;6334533;22;19999;-93
2024/04/12 12:41:45;;;;;;;0.10;0.10;;;;;;;27.63;37.68;76919.03;6378862;22;20202;-93
2024/04/12 12:44:28;;;;;;;0.10;0.10;;;;;;;27.97;36.89;76959.50;6336350;22;20428;-92
2024/04/12 12:46:55;;;;;;;0.10;0.10;;;;;;;27.63;38.56;76916.78;6337361;22;20003;-94
2024/04/12 12:49:21;;;;;;;0.10;0.10;;;;;;;27.98;39.74;76957.28;6336340;22;20010;-94
2024/04/12 12:51:47;;;;;;;0.10;0.10;;;;;;;27.30;39.95;76880.41;6336051;22;20091;-94
2024/04/12 12:54:13;;;;;;;0.10;0.10;;;;;;;27.38;39.40;76889.47;6335566;22;20031;-95
2024/04/12 12:56:40;;;;;;;0.10;0.10;;;;;;;27.08;40.71;76860.13;6337301;22;20015;-93
2024/04/12 12:59:05;;;;;;;0.10;0.10;;;;;;;26.92;39.84;76832.28;6338470;22;19999;-91
2024/04/12 13:01:43;;;;;;;0.10;0.10;;;;;;;27.07;40.36;76856.09;6338023;22;20000;-92
2024/04/12 13:04:08;;;;;;;0.10;0.10;;;;;;;27.02;40.74;76844.38;6338135;22;20027;-93
2024/04/12 13:06:37;;;;;;;0.10;0.10;;;;;;;27.45;38.86;76895.06;6379882;22;19995;-93
2024/04/12 13:09:04;;;;;;;0.10;0.10;;;;;;;27.51;39.23;76907.41;6378600;22;20019;-93
2024/04/12 13:11:31;;;;;;;0.10;0.10;;;;;;;27.51;38.83;76905.16;6379981;22;20003;-93
2024/04/12 13:13:59;;;;;;;0.10;0.10;;;;;;;27.45;38.72;76897.91;6338477;22;20468;-93
2024/04/12 13:16:28;;;;;;;0.10;0.10;;;;;;;27.60;38.21;76916.03;6339138;22;20428;-93
2024/04/12 13:18:56;;;;;;;0.10;0.10;;;;;;;27.72;36.96;76923.63;6338349;22;20010;-93
2024/04/12 13:21:23;;;;;;;0.10;0.10;;;;;;;28.15;36.78;76981.25;6336449;22;20066;-94
2024/04/12 13:23:49;;;;;;;0.10;0.10;;;;;;;28.18;36.91;76984.28;6377725;22;20007;-94
2024/04/12 13:26:33;;;;;;;0.10;0.10;;;;;;;28.26;37.69;76993.31;6379076;22;19999;-93
2024/04/12 13:28:59;;;;;;;0.10;0.10;;;;;;;28.23;37.31;76996.00;6379522;22;20011;-93
2024/04/12 13:31:25;;;;;;;0.10;0.10;;;;;;;28.08;38.47;76972.19;6379888;22;19999;-93
2024/04/12 13:33:54;;;;;;;0.10;0.10;;;;;;;27.46;39.28;76899.13;6338053;22;19999;-92
2024/04/12 13:36:21;;;;;;;0.10;0.10;;;;;;;27.34;39.26;76884.63;6379239;22;20457;-93
2024/04/12 13:38:48;;;;;;;0.10;0.10;;;;;;;27.50;38.41;76903.94;6334047;22;20010;-93
2024/04/12 13:41:18;;;;;;;0.10;0.10;;;;;;;27.08;39.46;76854.47;6378551;22;20082;-93
2024/04/12 13:43:46;;;;;;;0.10;0.10;;;;;;;27.47;39.22;76903.16;6379332;22;20000;-92
2024/04/12 13:51:49;;;;;;;0.10;0.10;;;;;;;27.39;39.60;76890.69;6377834;22;20009;-93
2024/04/12 13:54:24;;;;;;;0.10;0.10;;;;;;;27.02;39.63;76852.88;6380419;22;20023;-93
2024/04/12 13:56:58;;;;;;;0.10;0.10;;;;;;;27.46;38.44;76899.13;6338256;22;19999;-93
2024/04/12 13:59:25;;;;;;;0.10;0.10;;;;;;;27.52;37.58;76911.44;6380508;22;20352;-93
2024/04/12 14:01:50;;;;;;;0.10;0.10;;;;;;;27.49;38.04;76902.75;6337497;22;20006;-96
2024/04/12 14:04:19;;;;;;;0.10;0.10;;;;;;;27.47;38.44;76906.00;6338943;22;19995;-95
2024/04/12 14:06:48;;;;;;;0.10;0.10;;;;;;;27.53;38.55;76909.78;6330540;22;19996;-95
2024/04/12 14:09:21;;;;;;;0.15;0.15;;;;;;;26.94;39.22;76837.53;6329863;22;20327;-93
2024/04/12 14:11:47;;;;;;;0.10;0.10;;;;;;;27.05;38.66;76853.66;6339101;22;20023;-95
2024/04/12 14:14:13;;;;;;;0.10;0.10;;;;;;;26.77;39.40;76822.69;6338974;22;20011;-94
2024/04/12 14:16:42;;;;;;;0.10;0.10;;;;;;;26.88;39.08;76830.28;6339174;22;19995;-94
2024/04/12 14:19:17;;;;;;;0.10;0.10;;;;;;;26.27;40.23;76758.50;6381029;22;19999;-93
2024/04/12 14:21:45;;;;;;;0.10;0.10;;;;;;;26.53;39.99;76794.97;6381724;22;19999;-93
2024/04/12 14:24:56;;;;;;;0.17;0.17;;;;;;;26.84;39.74;76825.47;6339123;22;20010;-95
2024/04/12 14:26:57;;;;;;;0.10;0.10;;;;;;;26.41;40.70;76774.16;6380810;22;20006;-95
2024/04/12 14:29:26;;;;;;;0.10;0.10;;;;;;;26.71;41.55;76812.63;6379933;22;20013;-95
2024/04/12 14:32:05;;;;;;;0.10;0.10;;;;;;;26.99;42.64;76846.41;6338390;22;20007;-96
2024/04/12 14:34:32;;;;;;;0.10;0.10;;;;;;;26.28;45.21;76759.09;6338025;22;20511;-92
2024/04/12 14:37:00;;;;;;;0.10;0.10;;;;;;;25.76;47.02;76703.25;6336932;22;20007;-94
2024/04/12 14:39:28;;;;;;;0.10;0.10;;;;;;;25.61;47.15;76680.06;6337671;22;19999;-93
2024/04/12 14:41:55;;;;;;;0.10;0.10;;;;;;;26.60;45.84;76797.72;6338155;22;20051;-93
2024/04/12 14:44:22;;;;;;;0.10;0.10;;;;;;;26.57;45.79;76793.50;6338134;22;20083;-94
2024/04/12 14:46:47;;;;;;;0.10;0.10;;;;;;;26.08;47.34;76741.22;6338585;22;20010;-93
2024/04/12 14:49:13;;;;;;;0.10;0.10;;;;;;;25.77;48.02;76696.53;6381166;22;19995;-93
2024/04/12 14:51:42;;;;;;;0.10;0.10;;;;;;;25.56;48.50;76680.28;6338380;22;19999;-93
2024/04/12 14:54:09;;;;;;;0.10;0.10;;;;;;;26.16;47.74;76744.63;6380174;22;20063;-94
2024/04/12 14:56:35;;;;;;;0.10;0.10;;;;;;;25.93;48.16;76726.56;6381674;22;20006;-92
2024/04/12 14:59:00;;;;;;;0.20;0.20;;;;;;;25.98;48.32;76726.94;6336864;22;20007;-94
2024/04/12 15:01:26;;;;;;;0.10;0.10;;;;;;;25.24;49.54;76641.72;6378742;22;20049;-93
2024/04/12 15:50:26;;;;;;;0.10;0.10;;;;;;;24.09;54.16;76500.41;6378132;22;19999;-93
2024/04/12 16:12:36;;;;;;;0.20;0.20;;;;;;;23.23;55.29;76398.63;6375247;22;20070;-94
2024/04/12 16:15:04;;;;;;;0.20;0.20;;;;;;;23.28;56.54;76413.09;6332418;22;20273;-93
2024/04/12 16:17:31;;;;;;;0.20;0.20;;;;;;;23.16;56.36;76395.81;6376621;22;19995;-94
2024/04/12 16:19:56;;;;;;;0.10;0.10;;;;;;;22.95;57.98;76374.53;6376968;22;20412;-94
2024/04/12 16:22:22;;;;;;;0.20;0.20;;;;;;;23.02;56.96;76378.97;6333582;22;19999;-95
2024/04/12 16:24:48;;;;;;;0.20;0.20;;;;;;;22.49;57.75;76316.94;6375115;22;20042;-96
2024/04/12 16:27:21;;;;;;;0.20;0.20;;;;;;;22.75;58.43;76344.81;6376558;22;20003;-94
2024/04/12 16:29:46;;;;;;;;;;;;;;;22.86;58.82;76354.63;6334252;22;20010;-93
2024/04/12 16:32:16;;;;;;;0.10;0.10;;;;;;;22.49;59.38;76320.34;6332781;22;19924;-94
2024/04/12 16:34:53;;;;;;;0.20;0.20;;;;;;;21.96;59.78;76257.13;6330653;22;19999;-94
2024/04/12 16:37:20;;;;;;;0.20;0.20;;;;;;;22.19;61.79;76284.22;6329991;22;19999;-94
2024/04/12 16:39:48;;;;;;;0.20;0.20;;;;;;;22.01;62.77;76254.09;6331458;22;20023;-95
2024/04/12 16:42:17;;;;;;;0.20;0.20;;;;;;;21.86;63.90;76245.09;6376100;22;19999;-93
2024/04/12 16:44:48;;;;;;;0.20;0.20;;;;;;;21.86;65.15;76240.06;6333699;22;20032;-94
2024/04/12 16:47:13;;;;;;;0.13;0.13;;;;;;;22.01;64.88;76256.91;6332539;22;20312;-93
2024/04/12 16:49:39;;;;;;;0.20;0.20;;;;;;;22.16;63.97;76280.63;6333142;22;19999;-94
2024/04/12 16:52:14;;;;;;;0.20;0.20;;;;;;;22.07;64.65;76266.97;6333151;22;20055;-93
2024/04/12 16:54:39;;;;;;;0.20;0.20;;;;;;;21.79;65.46;76231.66;6332984;22;20023;-94
2024/04/12 16:57:05;;;;;;;0.17;0.17;;;;;;;21.60;65.32;76214.41;6376725;22;20014;-94
2024/04/12 16:59:34;;;;;;;0.20;0.20;;;;;;;21.55;66.51;76211.22;6376922;22;20003;-94
2024/04/12 17:02:02;;;;;;;0.20;0.20;;;;;;;21.40;67.87;76194.34;6332748;22;19999;-93
2024/04/12 17:04:41;;;;;;;;;;;;;;;;;;;;;
2024/04/12 17:07:08;;;;;;;0.20;0.20;;;;;;;20.99;69.36;76145.03;6375700;22;20003;-95
2024/04/12 17:09:37;;;;;;;0.20;0.20;;;;;;;21.18;70.17;76159.44;6330766;22;20005;-96
2024/04/12 17:12:03;;;;;;;0.20;0.20;;;;;;;21.33;70.43;76180.31;6373210;22;20011;-94
2024/04/12 17:14:31;;;;;;;0.10;0.10;;;;;;;21.08;71.64;76150.81;6375516;22;20018;-93
2024/04/12 17:17:00;;;;;;;0.20;0.20;;;;;;;20.81;73.02;76118.94;6332692;22;20002;-94
2024/04/12 17:19:25;;;;;;;0.20;0.20;;;;;;;20.70;73.63;76107.91;6334035;22;20003;-93
2024/04/12 17:21:51;;;;;;;0.20;0.20;;;;;;;20.91;73.77;76130.97;6333585;22;20014;-94
2024/04/12 17:24:22;;;;;;;0.20;0.20;;;;;;;20.67;74.22;76104.94;6333098;22;20014;-94
2024/04/12 17:26:48;;;;;;;0.20;0.20;;;;;;;20.63;74.75;76097.31;6332006;22;20003;-94
2024/04/12 17:29:17;;;;;;;0.20;0.20;;;;;;;20.79;75.50;76118.75;6376542;22;19999;-96
2024/04/12 17:31:45;;;;;;;0.20;0.20;;;;;;;20.32;75.91;76066.81;6333052;22;19999;-94
2024/04/12 17:34:10;;;;;;;0.20;0.20;;;;;;;20.27;76.07;76058.00;6335508;22;19999;-95
2024/04/12 17:36:36;;;;;;;0.20;0.20;;;;;;;20.49;75.53;76081.06;6334853;22;20014;-93
2024/04/12 17:39:06;;;;;;;0.10;0.10;;;;;;;20.74;75.90;76107.72;6376075;22;20017;-92
2024/04/12 17:41:32;;;;;;;0.20;0.20;;;;;;;20.35;76.68;76067.63;6335154;22;20452;-94
2024/04/12 17:43:58;;;;;;;0.20;0.20;;;;;;;20.79;77.28;76118.75;6378222;22;20010;-95
2024/04/12 17:46:25;;;;;;;0.20;0.20;;;;;;;20.66;77.30;76100.91;6336591;22;20003;-93
2024/04/12 17:48:51;;;;;;;0.20;0.20;;;;;;;20.34;78.28;76066.41;6337320;22;20103;-94
2024/04/12 17:51:17;;;;;;;0.20;0.20;;;;;;;20.45;79.33;76076.22;6380663;22;20086;-94
2024/04/12 17:53:42;;;;;;;0.20;0.20;;;;;;;20.07;79.86;76037.34;6337314;22;20483;-94
2024/04/12 17:56:08;;;;;;;0.20;0.20;;;;;;;20.41;79.83;76080.44;6335237;22;19999;-94
2024/04/12 17:58:35;;;;;;;0.20;0.20;;;;;;;20.20;80.69;76046.19;6332605;22;20007;-93
2024/04/12 18:01:02;;;;;;;0.20;0.20;;;;;;;20.03;82.37;76026.34;6332750;22;19999;-94
2024/04/12 18:03:28;;;;;;;0.20;0.20;;;;;;;19.87;82.43;76008.31;6335584;22;19999;-94
2024/04/12 18:05:53;;;;;;;0.13;0.13;;;;;;;20.01;82.76;76023.94;6335436;22;20007;-94
2024/04/12 18:08:24;;;;;;;0.20;0.20;;;;;;;20.13;82.23;76043.97;6378369;22;19995;-94
2024/04/12 18:11:03;;;;;;;0.20;0.20;;;;;;;20.17;82.54;76048.19;6337947;22;19996;-95
2024/04/12 18:13:29;;;;;;;0.20;0.20;;;;;;;20.06;82.97;76036.16;6382097;22;20006;-94
2024/04/12 18:15:56;;;;;;;0.10;0.10;;;;;;;20.01;83.46;76023.94;6338471;22;20082;-94
2024/04/12 18:18:24;;;;;;;0.20;0.20;;;;;;;19.73;83.48;75991.47;6338118;22;20006;-95
2024/04/12 18:20:51;;;;;;;0.20;0.20;;;;;;;20.06;83.55;76036.16;6381397;22;20074;-95
2024/04/12 18:23:22;;;;;;;0.20;0.20;;;;;;;20.12;83.26;76042.75;6337684;22;20055;-96
2024/04/12 18:25:53;;;;;;;0.20;0.20;;;;;;;19.99;84.17;76021.53;6381029;22;19999;-94
2024/04/12 18:28:21;;;;;;;0.20;0.20;;;;;;;19.88;84.72;76009.50;6380093;22;20013;-95
2024/04/12 18:30:46;;;;;;;0.13;0.13;;;;;;;19.91;85.09;76012.50;6380166;22;20023;-93
2024/04/12 18:33:18;;;;;;;0.20;0.20;;;;;;;19.87;84.12;76008.31;6337900;22;20047;-95
2024/04/12 18:35:49;;;;;;;0.20;0.20;;;;;;;19.80;84.06;76005.50;6381405;22;20039;-95
2024/04/12 18:46:32;;;;;;;0.20;0.20;;;;;;;19.75;79.32;75996.69;6379365;22;20014;-93
2024/04/12 18:48:58;;;;;;;0.15;0.15;;;;;;;19.65;81.44;75981.25;6379022;22;20003;-91
2024/04/12 18:51:23;;;;;;;0.20;0.20;;;;;;;19.73;80.88;75991.47;6334640;22;20349;-96
2024/04/12 18:53:49;;;;;;;0.20;0.20;;;;;;;19.63;80.80;75985.06;6333001;22;20074;-95
2024/04/12 18:56:14;;;;;;;0.20;0.20;;;;;;;19.66;81.72;75988.69;6334372;22;20007;-95
2024/04/12 18:58:43;;;;;;;0.20;0.20;;;;;;;19.60;79.73;75981.44;6334375;22;20384;-94
2024/04/12 19:01:08;;;;;;;0.20;0.20;;;;;;;19.63;80.35;75987.88;6378138;22;20013;-95
2024/04/12 19:03:34;;;;;;;0.20;0.20;;;;;;;19.68;80.48;75985.47;6335198;22;19999;-95
2024/04/12 19:06:04;;;;;;;0.20;0.20;;;;;;;19.68;81.38;75985.47;6334443;22;20007;-95
2024/04/12 19:08:30;;;;;;;0.20;0.20;;;;;;;19.67;81.41;75989.28;6333904;22;20424;-93
2024/04/12 19:10:56;;;;;;;0.20;0.20;;;;;;;19.65;80.83;75984.66;6376747;22;20014;-95
2024/04/12 19:13:21;;;;;;;0.20;0.20;;;;;;;19.72;80.92;75995.91;6335042;22;20003;-94
2024/04/12 19:15:48;;;;;;;0.20;0.20;;;;;;;19.72;80.23;75990.28;6376774;22;20018;-94
2024/04/12 19:18:13;;;;;;;0.20;0.20;;;;;;;19.48;79.95;75961.41;6371996;22;20475;-96
2024/04/12 19:20:42;;;;;;;0.20;0.20;;;;;;;19.47;79.48;75960.22;6373307;22;20113;-93
2024/04/12 19:23:11;;;;;;;0.20;0.20;;;;;;;19.43;79.18;75961.59;6372635;22;20003;-94
2024/04/12 19:25:36;;;;;;;0.20;0.20;;;;;;;19.48;78.89;75967.63;6377090;22;20014;-95
2024/04/12 19:28:05;;;;;;;0.20;0.20;;;;;;;19.41;77.93;75958.63;6333824;22;19995;-94
2024/04/12 19:30:33;;;;;;;0.20;0.20;;;;;;;19.35;76.13;75946.41;6375550;22;20010;-94
2024/04/12 19:32:59;;;;;;;0.20;0.20;;;;;;;19.34;74.67;75950.81;6377335;22;20626;-94
2024/04/12 19:35:24;;;;;;;0.20;0.20;;;;;;;19.30;74.67;75946.00;6335785;22;19999;-94
2024/04/12 19:37:51;;;;;;;0.20;0.20;;;;;;;19.27;75.01;75945.78;6334116;22;20007;-94
2024/04/12 19:40:19;;;;;;;0.20;0.20;;;;;;;19.07;75.15;75913.34;6333356;22;20007;-95
2024/04/12 19:42:44;;;;;;;0.17;0.17;;;;;;;19.12;74.68;75922.16;6376613;22;20004;-94
2024/04/12 19:45:10;;;;;;;0.20;0.20;;;;;;;19.10;74.70;75923.16;6334430;22;20082;-93
2024/04/12 19:47:35;;;;;;;0.20;0.20;;;;;;;19.04;75.24;75915.34;6377922;22;20403;-95
2024/04/12 19:50:01;;;;;;;0.20;0.20;;;;;;;18.96;75.36;75902.94;6377829;22;19999;-93
2024/04/12 19:52:26;;;;;;;0.20;0.20;;;;;;;19.05;76.30;75910.94;6335070;22;20009;-94